臺東航空站 - ATIS

METAR RCFN 181300Z 32006KT 280V040 9999 -RA FEW020 BKN150 26/24 Q1006 NOSIG RMK A2973=

站台狀態:Online
最後更新:2019-08-18 23:00:02